createdAt,value
2018-03-14T00:01:08.396Z,93.90
2018-03-14T00:03:35.952Z,94.20
2018-03-14T00:06:03.516Z,94.40
2018-03-14T00:08:31.119Z,94.30
2018-03-14T00:10:58.670Z,94.40
2018-03-14T00:13:26.230Z,94.40
2018-03-14T00:15:53.807Z,94.40
2018-03-14T00:18:21.488Z,94.60
2018-03-14T00:20:49.028Z,94.40
2018-03-14T00:23:16.571Z,94.50
2018-03-14T00:25:44.120Z,94.60
2018-03-14T00:28:12.821Z,94.60
2018-03-14T00:30:40.369Z,94.60
2018-03-14T00:33:08.737Z,94.80
2018-03-14T00:35:36.294Z,94.80
2018-03-14T00:38:03.865Z,94.60
2018-03-14T00:40:31.429Z,94.90
2018-03-14T00:42:58.974Z,94.70
2018-03-14T00:45:26.527Z,94.60
2018-03-14T00:47:54.216Z,94.90
2018-03-14T00:50:21.770Z,94.90
2018-03-14T00:52:49.344Z,95.00
2018-03-14T00:55:16.917Z,95.00
2018-03-14T00:57:44.464Z,94.90
2018-03-14T01:00:11.993Z,93.80
2018-03-14T01:02:39.540Z,94.20
2018-03-14T01:05:07.886Z,94.30
2018-03-14T01:07:35.439Z,94.20
2018-03-14T01:10:02.984Z,94.40
2018-03-14T01:12:30.611Z,93.90
2018-03-14T01:14:58.157Z,93.90
2018-03-14T01:17:25.725Z,93.80
2018-03-14T01:19:53.270Z,94.00
2018-03-14T01:22:20.830Z,94.30
2018-03-14T01:24:48.379Z,94.40
2018-03-14T01:27:15.922Z,94.40
2018-03-14T01:29:43.622Z,94.10
2018-03-14T01:32:11.172Z,94.10
2018-03-14T01:34:38.712Z,94.20
2018-03-14T01:37:07.021Z,94.10
2018-03-14T01:39:34.689Z,94.10
2018-03-14T01:42:02.306Z,94.10
2018-03-14T01:44:29.841Z,93.70
2018-03-14T01:46:57.427Z,93.90
2018-03-14T01:49:24.967Z,94.30
2018-03-14T01:51:52.506Z,94.30
2018-03-14T01:54:20.855Z,94.60
2018-03-14T01:56:48.484Z,94.60
2018-03-14T01:59:16.038Z,94.70
2018-03-14T02:01:43.595Z,94.80
2018-03-14T02:04:11.236Z,94.80
2018-03-14T02:06:38.841Z,94.80
2018-03-14T02:09:06.375Z,95.00
2018-03-14T02:11:34.673Z,94.90
2018-03-14T02:14:02.216Z,94.90
2018-03-14T02:16:30.521Z,95.20
2018-03-14T02:18:58.070Z,95.00
2018-03-14T02:21:26.367Z,95.40
2018-03-14T02:23:53.925Z,95.00
2018-03-14T02:26:22.231Z,95.00
2018-03-14T02:28:49.781Z,95.00
2018-03-14T02:31:17.652Z,95.00
2018-03-14T02:33:45.953Z,95.70
2018-03-14T02:36:13.504Z,95.30
2018-03-14T02:38:41.085Z,95.30
2018-03-14T02:41:08.631Z,95.40
2018-03-14T02:43:36.271Z,95.30
2018-03-14T02:46:03.802Z,95.30
2018-03-14T02:48:31.351Z,95.20
2018-03-14T02:50:58.913Z,95.10
2018-03-14T02:53:26.444Z,95.10
2018-03-14T02:55:54.789Z,95.20
2018-03-14T02:58:22.316Z,95.20
2018-03-14T03:00:49.866Z,95.30
2018-03-14T03:03:18.176Z,95.40
2018-03-14T03:05:45.828Z,95.40
2018-03-14T03:08:13.685Z,95.40
2018-03-14T03:10:41.973Z,95.40
2018-03-14T03:13:10.274Z,95.50
2018-03-14T03:15:37.819Z,95.50
2018-03-14T03:18:06.128Z,95.40
2018-03-14T03:20:33.701Z,95.40
2018-03-14T03:23:01.226Z,95.60
2018-03-14T03:25:29.543Z,95.70
2018-03-14T03:27:57.076Z,95.70
2018-03-14T03:30:25.389Z,95.70
2018-03-14T03:32:52.925Z,95.60
2018-03-14T03:35:21.234Z,95.50
2018-03-14T03:37:48.776Z,95.50
2018-03-14T03:40:17.159Z,95.50
2018-03-14T03:42:45.496Z,95.60
2018-03-14T03:45:13.068Z,95.60
2018-03-14T03:47:40.635Z,95.60
2018-03-14T03:50:08.950Z,95.70
2018-03-14T03:52:37.248Z,95.70
2018-03-14T03:55:04.825Z,95.70
2018-03-14T03:57:32.393Z,95.70
2018-03-14T04:00:00.138Z,95.70
2018-03-14T04:02:28.440Z,95.70
2018-03-14T04:04:55.973Z,95.60
2018-03-14T04:07:23.548Z,95.70
2018-03-14T04:09:51.872Z,95.60
2018-03-14T04:12:19.439Z,95.60
2018-03-14T04:14:46.972Z,95.70
2018-03-14T04:17:14.518Z,95.60
2018-03-14T04:19:42.060Z,95.80
2018-03-14T04:22:09.656Z,95.90
2018-03-14T04:24:37.971Z,95.80
2018-03-14T04:27:05.501Z,95.70
2018-03-14T04:29:33.814Z,96.00
2018-03-14T04:32:01.350Z,96.00
2018-03-14T04:34:29.665Z,96.50
2018-03-14T04:36:57.206Z,96.40
2018-03-14T04:39:24.824Z,96.70
2018-03-14T04:41:52.367Z,96.90
2018-03-14T04:44:19.928Z,97.10
2018-03-14T04:46:47.638Z,97.20
2018-03-14T04:49:15.179Z,97.30
2018-03-14T04:51:42.737Z,97.30
2018-03-14T04:54:10.273Z,97.40
2018-03-14T04:56:38.583Z,97.70
2018-03-14T04:59:06.144Z,97.60
2018-03-14T05:01:33.703Z,97.80
2018-03-14T05:04:01.235Z,97.90
2018-03-14T05:06:28.762Z,97.90
2018-03-14T05:08:56.318Z,98.00
2018-03-14T05:11:23.889Z,98.10
2018-03-14T05:13:51.418Z,98.20
2018-03-14T05:16:18.960Z,98.20
2018-03-14T05:18:46.565Z,98.30
2018-03-14T05:21:14.107Z,98.30
2018-03-14T05:23:42.440Z,98.40
2018-03-14T05:26:10.106Z,98.40
2018-03-14T05:28:37.642Z,98.50
2018-03-14T05:31:05.146Z,98.70
2018-03-14T05:33:32.675Z,98.60
2018-03-14T05:36:00.638Z,98.70
2018-03-14T05:38:28.186Z,98.60
2018-03-14T05:40:55.715Z,98.60
2018-03-14T05:43:23.246Z,98.60
2018-03-14T05:45:50.788Z,98.70
2018-03-14T05:48:19.115Z,98.80
2018-03-14T05:50:46.655Z,98.80
2018-03-14T05:53:14.238Z,98.80
2018-03-14T05:55:41.787Z,98.60
2018-03-14T05:58:09.507Z,98.60
2018-03-14T06:00:37.050Z,98.60
2018-03-14T06:03:04.613Z,98.60
2018-03-14T06:05:32.153Z,98.60
2018-03-14T06:07:59.692Z,98.70
2018-03-14T06:10:28.002Z,99.00
2018-03-14T06:12:55.565Z,99.00
2018-03-14T06:15:23.114Z,99.20
2018-03-14T06:17:51.422Z,99.40
2018-03-14T06:20:18.945Z,99.40
2018-03-14T06:22:47.258Z,99.40
2018-03-14T06:25:14.812Z,99.40
2018-03-14T06:27:43.123Z,99.40
2018-03-14T06:30:10.683Z,99.40
2018-03-14T06:32:38.222Z,99.40
2018-03-14T06:35:06.539Z,99.40
2018-03-14T06:37:34.112Z,99.30
2018-03-14T06:40:01.667Z,99.30
2018-03-14T06:42:29.205Z,99.20
2018-03-14T06:44:57.508Z,99.10
2018-03-14T06:47:25.071Z,99.10
2018-03-14T06:49:52.919Z,99.20
2018-03-14T06:52:21.222Z,99.20
2018-03-14T06:54:48.766Z,99.20
2018-03-14T06:57:17.062Z,99.20
2018-03-14T06:59:56.440Z,99.20
2018-03-14T07:02:35.746Z,99.00
2018-03-14T07:05:15.135Z,99.30
2018-03-14T07:07:42.675Z,99.10
2018-03-14T07:10:10.200Z,99.20
2018-03-14T07:12:37.764Z,99.30
2018-03-14T07:15:05.295Z,99.60
2018-03-14T07:17:32.832Z,99.30
2018-03-14T07:20:00.382Z,99.20
2018-03-14T07:22:27.933Z,99.30
2018-03-14T07:24:55.538Z,99.20
2018-03-14T07:27:23.076Z,99.20
2018-03-14T07:29:50.625Z,99.20
2018-03-14T07:32:18.174Z,99.00
2018-03-14T07:34:46.488Z,98.70
2018-03-14T07:37:14.049Z,98.70
2018-03-14T07:39:41.592Z,98.50
2018-03-14T07:42:09.154Z,98.40
2018-03-14T07:44:37.523Z,98.30
2018-03-14T07:47:05.028Z,98.30
2018-03-14T07:49:32.588Z,98.20
2018-03-14T07:52:00.132Z,98.10
2018-03-14T07:54:28.421Z,97.60
2018-03-14T07:56:55.972Z,97.70
2018-03-14T07:59:24.289Z,97.50
2018-03-14T08:01:51.885Z,97.50
2018-03-14T08:04:19.416Z,97.10
2018-03-14T08:06:46.978Z,96.90
2018-03-14T08:09:14.542Z,96.30
2018-03-14T08:11:42.168Z,96.00
2018-03-14T08:14:09.755Z,96.30
2018-03-14T08:16:38.179Z,95.70
2018-03-14T08:19:05.767Z,95.70
2018-03-14T08:21:33.304Z,95.20
2018-03-14T08:24:00.847Z,94.30
2018-03-14T08:26:28.410Z,93.90
2018-03-14T08:28:55.953Z,93.20
2018-03-14T08:31:24.346Z,92.30
2018-03-14T08:33:51.879Z,92.20
2018-03-14T08:36:19.417Z,91.70
2018-03-14T08:38:46.974Z,91.90
2018-03-14T08:41:14.520Z,92.00
2018-03-14T08:43:42.079Z,91.50
2018-03-14T08:46:09.631Z,91.40
2018-03-14T08:48:37.947Z,90.50
2018-03-14T08:51:05.492Z,90.50
2018-03-14T08:53:33.819Z,90.10
2018-03-14T08:56:01.362Z,90.10
2018-03-14T08:58:28.928Z,89.40
2018-03-14T09:00:56.475Z,88.60
2018-03-14T09:03:24.024Z,88.10
2018-03-14T09:05:52.429Z,87.50
2018-03-14T09:08:19.971Z,87.30
2018-03-14T09:10:47.517Z,87.00
2018-03-14T09:13:15.046Z,84.10
2018-03-14T09:15:42.619Z,83.60
2018-03-14T09:18:10.168Z,82.00
2018-03-14T09:20:37.733Z,79.70
2018-03-14T09:23:05.331Z,78.20
2018-03-14T09:25:32.870Z,78.80
2018-03-14T09:28:00.403Z,79.20
2018-03-14T09:30:28.711Z,79.10
2018-03-14T09:32:56.371Z,79.10
2018-03-14T09:35:23.909Z,78.70
2018-03-14T09:37:51.444Z,77.90
2018-03-14T09:40:19.018Z,79.50
2018-03-14T09:42:46.556Z,79.70
2018-03-14T09:45:14.106Z,79.20
2018-03-14T09:47:42.605Z,78.80
2018-03-14T09:50:10.130Z,78.10
2018-03-14T09:52:38.491Z,76.30
2018-03-14T09:55:06.138Z,76.20
2018-03-14T09:57:33.678Z,75.20
2018-03-14T10:00:01.249Z,74.20
2018-03-14T10:02:29.037Z,74.50
2018-03-14T10:04:56.582Z,75.00
2018-03-14T10:07:24.125Z,74.90
2018-03-14T10:09:52.435Z,75.50
2018-03-14T10:12:19.979Z,75.50
2018-03-14T10:14:47.513Z,75.60
2018-03-14T10:17:15.878Z,73.70
2018-03-14T10:19:43.426Z,74.20
2018-03-14T10:22:10.969Z,71.40
2018-03-14T10:24:38.518Z,70.30
2018-03-14T10:27:06.120Z,71.40
2018-03-14T10:29:33.659Z,71.50
2018-03-14T10:32:01.200Z,71.80
2018-03-14T10:34:29.516Z,71.00
2018-03-14T10:36:57.089Z,71.00
2018-03-14T10:39:24.645Z,68.80
2018-03-14T10:41:52.188Z,68.30
2018-03-14T10:44:19.782Z,66.40
2018-03-14T10:46:47.349Z,65.60
2018-03-14T10:49:14.954Z,65.40
2018-03-14T10:51:42.438Z,64.20
2018-03-14T10:54:10.753Z,61.60
2018-03-14T10:56:38.696Z,61.30
2018-03-14T10:59:07.006Z,63.20
2018-03-14T11:01:40.273Z,63.10
2018-03-14T11:04:08.581Z,63.90
2018-03-14T11:06:36.169Z,63.40
2018-03-14T11:09:05.448Z,64.30
2018-03-14T11:11:33.825Z,63.90
2018-03-14T11:14:02.134Z,62.90
2018-03-14T11:16:29.716Z,62.90
2018-03-14T11:18:57.310Z,63.20
2018-03-14T11:21:24.833Z,64.60
2018-03-14T11:23:52.447Z,64.40
2018-03-14T11:26:20.115Z,63.20
2018-03-14T11:28:47.655Z,65.00
2018-03-14T11:31:15.189Z,65.40
2018-03-14T11:33:42.807Z,65.10
2018-03-14T11:36:10.348Z,64.60
2018-03-14T11:38:37.910Z,66.30
2018-03-14T11:41:05.452Z,65.40
2018-03-14T11:43:32.990Z,67.70
2018-03-14T11:46:01.315Z,70.30
2018-03-14T11:48:28.844Z,70.30
2018-03-14T11:50:56.370Z,70.90
2018-03-14T11:53:23.914Z,69.20
2018-03-14T11:55:51.462Z,70.90
2018-03-14T11:58:18.994Z,71.70
2018-03-14T12:00:47.277Z,69.70
2018-03-14T12:03:15.583Z,70.60
2018-03-14T12:05:43.167Z,70.60
2018-03-14T12:08:10.714Z,69.20
2018-03-14T12:10:38.255Z,70.20
2018-03-14T12:13:06.878Z,67.50
2018-03-14T12:15:34.410Z,67.60
2018-03-14T12:18:02.721Z,67.30
2018-03-14T12:20:30.292Z,67.20
2018-03-14T12:22:57.846Z,66.20
2018-03-14T12:25:25.380Z,64.80
2018-03-14T12:27:52.911Z,64.30
2018-03-14T12:30:20.450Z,62.80
2018-03-14T12:32:47.989Z,62.50
2018-03-14T12:35:16.287Z,62.60
2018-03-14T12:37:43.830Z,62.50
2018-03-14T12:40:11.363Z,62.70
2018-03-14T12:42:38.913Z,62.20
2018-03-14T12:45:06.453Z,59.50
2018-03-14T12:47:33.992Z,58.90
2018-03-14T12:50:02.291Z,59.70
2018-03-14T12:52:30.614Z,57.40
2018-03-14T12:54:58.204Z,57.40
2018-03-14T12:57:25.792Z,59.40
2018-03-14T12:59:54.102Z,59.90
2018-03-14T13:02:21.638Z,59.90
2018-03-14T13:04:49.942Z,60.20
2018-03-14T13:07:17.583Z,60.20
2018-03-14T13:09:45.126Z,60.70
2018-03-14T13:12:12.781Z,59.40
2018-03-14T13:14:40.461Z,59.60
2018-03-14T13:17:08.058Z,60.10
2018-03-14T13:19:35.599Z,60.70
2018-03-14T13:22:03.151Z,62.80
2018-03-14T13:24:30.704Z,63.20
2018-03-14T13:26:58.235Z,62.30
2018-03-14T13:29:25.828Z,61.50
2018-03-14T13:31:53.365Z,62.70
2018-03-14T13:34:21.675Z,62.90
2018-03-14T13:36:49.196Z,62.90
2018-03-14T13:39:17.514Z,62.10
2018-03-14T13:41:45.050Z,62.00
2018-03-14T13:44:12.616Z,63.00
2018-03-14T13:46:40.925Z,63.70
2018-03-14T13:49:08.495Z,63.70
2018-03-14T13:51:36.029Z,63.40
2018-03-14T13:54:04.318Z,63.00
2018-03-14T13:56:32.202Z,62.90
2018-03-14T13:58:59.774Z,61.20
2018-03-14T14:01:27.306Z,59.90
2018-03-14T14:03:55.633Z,60.40
2018-03-14T14:06:23.195Z,60.30
2018-03-14T14:08:50.743Z,58.60
2018-03-14T14:11:18.286Z,58.80
2018-03-14T14:13:46.608Z,59.60
2018-03-14T14:16:14.145Z,59.00
2018-03-14T14:18:42.463Z,58.90
2018-03-14T14:21:10.121Z,58.90
2018-03-14T14:23:37.683Z,58.20
2018-03-14T14:26:05.329Z,60.00
2018-03-14T14:28:33.620Z,59.90
2018-03-14T14:31:01.183Z,59.90
2018-03-14T14:33:29.502Z,61.10
2018-03-14T14:35:57.048Z,61.10
2018-03-14T14:38:24.599Z,60.80
2018-03-14T14:40:52.138Z,60.90
2018-03-14T14:43:19.692Z,61.20
2018-03-14T14:45:47.273Z,61.80
2018-03-14T14:48:14.810Z,61.40
2018-03-14T14:50:42.350Z,61.30
2018-03-14T14:53:09.900Z,60.60
2018-03-14T14:55:37.420Z,60.90
2018-03-14T14:58:04.980Z,58.60
2018-03-14T15:00:32.539Z,58.50
2018-03-14T15:03:00.244Z,58.60
2018-03-14T15:05:28.640Z,57.40
2018-03-14T15:07:56.937Z,57.70
2018-03-14T15:10:24.790Z,57.70
2018-03-14T15:12:53.086Z,57.40
2018-03-14T15:15:20.816Z,57.40
2018-03-14T15:17:48.453Z,56.30
2018-03-14T15:20:16.017Z,56.00
2018-03-14T15:22:43.574Z,57.20
2018-03-14T15:25:11.139Z,57.00
2018-03-14T15:27:38.686Z,56.80
2018-03-14T15:30:06.238Z,57.70
2018-03-14T15:32:34.536Z,58.30
2018-03-14T15:35:02.096Z,58.20
2018-03-14T15:37:29.660Z,57.40
2018-03-14T15:39:57.198Z,57.80
2018-03-14T15:42:24.723Z,57.90
2018-03-14T15:44:52.282Z,57.70
2018-03-14T15:47:19.846Z,57.20
2018-03-14T15:49:47.410Z,57.20
2018-03-14T15:52:14.970Z,56.30
2018-03-14T15:54:42.523Z,57.50
2018-03-14T15:57:10.087Z,57.00
2018-03-14T15:59:38.374Z,58.10
2018-03-14T16:02:05.913Z,58.00
2018-03-14T16:04:34.250Z,57.20
2018-03-14T16:07:01.803Z,57.20
2018-03-14T16:09:29.379Z,57.80
2018-03-14T16:11:56.965Z,58.10
2018-03-14T16:14:24.530Z,58.10
2018-03-14T16:16:52.121Z,57.30
2018-03-14T16:19:20.439Z,57.70
2018-03-14T16:21:48.102Z,57.70
2018-03-14T16:24:15.720Z,57.20
2018-03-14T16:26:43.285Z,57.40
2018-03-14T16:29:10.826Z,57.80
2018-03-14T16:31:38.364Z,58.50
2018-03-14T16:34:05.922Z,59.00
2018-03-14T16:36:33.477Z,59.10
2018-03-14T16:39:01.825Z,59.30
2018-03-14T16:41:29.363Z,59.20
2018-03-14T16:43:56.908Z,59.80
2018-03-14T16:46:24.469Z,59.90
2018-03-14T16:48:52.035Z,60.00
2018-03-14T16:51:19.575Z,60.50
2018-03-14T16:53:47.893Z,61.10
2018-03-14T16:56:15.446Z,61.10
2018-03-14T16:58:43.009Z,61.50
2018-03-14T17:01:10.552Z,61.50
2018-03-14T17:03:38.854Z,62.50
2018-03-14T17:06:06.432Z,62.40
2018-03-14T17:08:33.997Z,63.10
2018-03-14T17:11:01.560Z,63.80
2018-03-14T17:13:29.107Z,64.80
2018-03-14T17:15:57.398Z,65.10
2018-03-14T17:18:24.935Z,65.10
2018-03-14T17:20:52.461Z,66.00
2018-03-14T17:23:20.007Z,66.10
2018-03-14T17:25:47.585Z,66.00
2018-03-14T17:28:15.130Z,66.90
2018-03-14T17:30:42.668Z,67.20
2018-03-14T17:33:10.987Z,68.90
2018-03-14T17:35:38.590Z,68.70
2018-03-14T17:38:06.207Z,69.30
2018-03-14T17:40:33.742Z,69.30
2018-03-14T17:43:01.273Z,70.10
2018-03-14T17:45:28.831Z,70.60
2018-03-14T17:47:56.377Z,71.00
2018-03-14T17:50:23.914Z,71.70
2018-03-14T17:52:52.236Z,72.80
2018-03-14T17:55:19.796Z,72.80
2018-03-14T17:57:47.346Z,73.00
2018-03-14T18:00:14.922Z,73.40
2018-03-14T18:02:42.461Z,73.40
2018-03-14T18:05:10.780Z,74.20
2018-03-14T18:07:38.342Z,74.20
2018-03-14T18:10:05.907Z,74.70
2018-03-14T18:12:33.453Z,75.20
2018-03-14T18:15:01.010Z,74.90
2018-03-14T18:17:29.311Z,75.40
2018-03-14T18:19:56.995Z,75.40
2018-03-14T18:22:24.560Z,75.80
2018-03-14T18:24:52.201Z,76.90
2018-03-14T18:27:19.748Z,76.80
2018-03-14T18:29:48.062Z,77.20
2018-03-14T18:32:15.935Z,77.20
2018-03-14T18:34:43.488Z,77.30
2018-03-14T18:37:11.027Z,76.90
2018-03-14T18:39:38.585Z,77.20
2018-03-14T18:42:06.150Z,77.30
2018-03-14T18:44:33.700Z,77.50
2018-03-14T18:47:01.245Z,78.10
2018-03-14T18:49:28.819Z,78.30
2018-03-14T18:51:56.358Z,78.40
2018-03-14T18:54:23.939Z,78.90
2018-03-14T18:56:51.509Z,79.00
2018-03-14T18:59:19.074Z,79.10
2018-03-14T19:01:46.641Z,79.60
2018-03-14T19:04:15.040Z,79.60
2018-03-14T19:06:43.371Z,80.20
2018-03-14T19:09:10.944Z,80.80
2018-03-14T19:11:38.511Z,80.40
2018-03-14T19:14:06.079Z,80.50
2018-03-14T19:16:33.646Z,80.80
2018-03-14T19:19:01.223Z,80.90
2018-03-14T19:21:28.789Z,81.10
2018-03-14T19:23:56.419Z,81.60
2018-03-14T19:26:24.745Z,82.00
2018-03-14T19:28:52.249Z,81.90
2018-03-14T19:31:19.811Z,82.40
2018-03-14T19:33:47.504Z,82.50
2018-03-14T19:36:15.835Z,82.80
2018-03-14T19:38:43.387Z,82.80
2018-03-14T19:41:11.149Z,82.70
2018-03-14T19:43:38.779Z,82.90
2018-03-14T19:46:07.132Z,83.50
2018-03-14T19:48:34.744Z,83.40
2018-03-14T19:51:03.135Z,83.70
2018-03-14T19:53:30.754Z,83.50
2018-03-14T19:55:58.392Z,84.00
2018-03-14T19:58:25.984Z,84.00
2018-03-14T20:00:53.662Z,84.00
2018-03-14T20:03:21.223Z,84.00
2018-03-14T20:05:48.835Z,83.90
2018-03-14T20:08:16.429Z,84.00
2018-03-14T20:10:44.001Z,84.50
2018-03-14T20:13:11.653Z,85.20
2018-03-14T20:15:39.377Z,85.40
2018-03-14T20:18:06.992Z,85.70
2018-03-14T20:20:34.588Z,85.60
2018-03-14T20:23:03.162Z,86.00
2018-03-14T20:25:30.754Z,86.00
2018-03-14T20:27:58.688Z,86.70
2018-03-14T20:30:26.259Z,86.80
2018-03-14T20:32:53.892Z,87.30
2018-03-14T20:35:22.235Z,88.30
2018-03-14T20:37:49.820Z,87.60
2018-03-14T20:40:17.426Z,87.80
2018-03-14T20:42:45.027Z,87.80
2018-03-14T20:45:12.623Z,87.90
2018-03-14T20:47:40.294Z,88.20
2018-03-14T20:50:07.870Z,88.20
2018-03-14T20:52:36.272Z,88.70
2018-03-14T20:55:04.618Z,88.70
2018-03-14T20:57:32.257Z,88.70
2018-03-14T20:59:59.841Z,88.90
2018-03-14T21:02:27.482Z,89.00
2018-03-14T21:04:55.785Z,89.20
2018-03-14T21:07:23.348Z,89.20
2018-03-14T21:09:50.903Z,89.60
2018-03-14T21:12:18.497Z,89.60
2018-03-14T21:14:46.121Z,89.80
2018-03-14T21:17:13.682Z,90.00
2018-03-14T21:19:41.247Z,90.00
2018-03-14T21:22:08.810Z,90.10
2018-03-14T21:24:36.389Z,90.20
2018-03-14T21:27:03.951Z,90.30
2018-03-14T21:29:31.536Z,90.40
2018-03-14T21:31:59.084Z,90.40
2018-03-14T21:34:26.639Z,90.50
2018-03-14T21:36:54.255Z,90.60
2018-03-14T21:39:21.963Z,90.70
2018-03-14T21:41:49.427Z,90.70
2018-03-14T21:44:17.759Z,90.80
2018-03-14T21:46:45.337Z,90.80
2018-03-14T21:49:12.893Z,90.80
2018-03-14T21:51:40.458Z,90.80
2018-03-14T21:54:07.999Z,90.90
2018-03-14T21:56:35.552Z,91.00
2018-03-14T21:59:03.094Z,91.00
2018-03-14T22:01:31.452Z,91.00
2018-03-14T22:03:59.023Z,91.00
2018-03-14T22:06:26.572Z,91.00
2018-03-14T22:08:54.119Z,91.00
2018-03-14T22:11:21.691Z,90.90
2018-03-14T22:13:49.217Z,91.00
2018-03-14T22:16:17.165Z,91.00
2018-03-14T22:18:44.695Z,91.00
2018-03-14T22:21:12.222Z,91.20
2018-03-14T22:23:39.766Z,91.30
2018-03-14T22:26:08.183Z,91.40
2018-03-14T22:28:36.506Z,91.30
2018-03-14T22:31:04.049Z,91.30
2018-03-14T22:33:31.611Z,91.30
2018-03-14T22:35:59.133Z,91.40
2018-03-14T22:38:27.457Z,91.40
2018-03-14T22:40:55.019Z,91.40
2018-03-14T22:43:22.584Z,91.30
2018-03-14T22:45:50.119Z,91.20
2018-03-14T22:48:17.714Z,91.30
2018-03-14T22:50:45.247Z,91.30
2018-03-14T22:53:13.555Z,91.30
2018-03-14T22:55:41.086Z,91.30
2018-03-14T22:58:09.381Z,91.10
2018-03-14T23:00:37.675Z,91.20
2018-03-14T23:03:05.964Z,91.20
2018-03-14T23:05:33.532Z,91.20
2018-03-14T23:08:01.072Z,91.30
2018-03-14T23:10:29.377Z,91.40
2018-03-14T23:12:56.935Z,91.40
2018-03-14T23:15:24.474Z,91.30
2018-03-14T23:17:52.801Z,91.50
2018-03-14T23:20:20.359Z,91.50
2018-03-14T23:22:47.898Z,91.40
2018-03-14T23:25:16.219Z,91.50
2018-03-14T23:27:43.802Z,91.50
2018-03-14T23:30:11.333Z,91.40
2018-03-14T23:32:38.868Z,91.50
2018-03-14T23:35:07.243Z,91.60
2018-03-14T23:37:34.761Z,91.50
2018-03-14T23:40:02.302Z,91.60
2018-03-14T23:42:29.847Z,91.70
2018-03-14T23:44:57.404Z,91.70
2018-03-14T23:47:24.945Z,91.80
2018-03-14T23:49:52.482Z,91.80
2018-03-14T23:52:20.018Z,91.90
2018-03-14T23:54:48.324Z,91.90
2018-03-14T23:57:15.885Z,91.90
2018-03-14T23:59:43.430Z,91.90
